sensor_id;sensor_type;location;lat;lon;timestamp;temperature;humidity
9951;DHT22;24074;49.254;6.702;2024-03-25T00:00:18;5.50;99.90
9951;DHT22;24074;49.254;6.702;2024-03-25T00:02:46;5.50;99.90
9951;DHT22;24074;49.254;6.702;2024-03-25T00:05:11;5.50;99.90
9951;DHT22;24074;49.254;6.702;2024-03-25T00:07:40;5.50;99.90
9951;DHT22;24074;49.254;6.702;2024-03-25T00:10:06;5.50;99.90
9951;DHT22;24074;49.254;6.702;2024-03-25T00:12:33;5.50;99.90
9951;DHT22;24074;49.254;6.702;2024-03-25T00:14:59;5.50;99.90
9951;DHT22;24074;49.254;6.702;2024-03-25T00:17:25;5.40;99.90
9951;DHT22;24074;49.254;6.702;2024-03-25T00:19:50;5.50;99.90
9951;DHT22;24074;49.254;6.702;2024-03-25T00:22:20;5.50;99.90
9951;DHT22;24074;49.254;6.702;2024-03-25T00:24:46;5.50;99.90
9951;DHT22;24074;49.254;6.702;2024-03-25T00:27:15;5.50;99.90
9951;DHT22;24074;49.254;6.702;2024-03-25T00:29:41;5.40;99.90
9951;DHT22;24074;49.254;6.702;2024-03-25T00:32:07;5.40;99.90
9951;DHT22;24074;49.254;6.702;2024-03-25T00:34:33;5.40;99.90
9951;DHT22;24074;49.254;6.702;2024-03-25T00:36:59;5.40;99.90
9951;DHT22;24074;49.254;6.702;2024-03-25T00:39:25;5.40;99.90
9951;DHT22;24074;49.254;6.702;2024-03-25T00:41:51;5.40;99.90
9951;DHT22;24074;49.254;6.702;2024-03-25T00:44:17;5.40;99.90
9951;DHT22;24074;49.254;6.702;2024-03-25T00:46:43;5.30;99.90
9951;DHT22;24074;49.254;6.702;2024-03-25T00:49:09;5.40;99.90
9951;DHT22;24074;49.254;6.702;2024-03-25T00:51:35;5.40;99.90
9951;DHT22;24074;49.254;6.702;2024-03-25T00:54:01;5.40;99.90
9951;DHT22;24074;49.254;6.702;2024-03-25T00:56:27;5.40;99.90
9951;DHT22;24074;49.254;6.702;2024-03-25T00:58:58;5.40;99.90
9951;DHT22;24074;49.254;6.702;2024-03-25T01:01:31;5.40;99.90
9951;DHT22;24074;49.254;6.702;2024-03-25T01:04:01;5.30;99.90
9951;DHT22;24074;49.254;6.702;2024-03-25T01:06:27;5.30;99.90
9951;DHT22;24074;49.254;6.702;2024-03-25T01:08:52;5.30;99.90
9951;DHT22;24074;49.254;6.702;2024-03-25T01:11:18;5.30;99.90
9951;DHT22;24074;49.254;6.702;2024-03-25T01:13:44;5.30;99.90
9951;DHT22;24074;49.254;6.702;2024-03-25T01:16:09;5.30;99.90
9951;DHT22;24074;49.254;6.702;2024-03-25T01:18:35;5.30;99.90
9951;DHT22;24074;49.254;6.702;2024-03-25T01:21:01;5.30;99.90
9951;DHT22;24074;49.254;6.702;2024-03-25T01:23:26;5.30;99.90
9951;DHT22;24074;49.254;6.702;2024-03-25T01:25:52;5.30;99.90
9951;DHT22;24074;49.254;6.702;2024-03-25T01:28:18;5.30;99.90
9951;DHT22;24074;49.254;6.702;2024-03-25T01:30:46;5.30;99.90
9951;DHT22;24074;49.254;6.702;2024-03-25T01:33:12;5.20;99.90
9951;DHT22;24074;49.254;6.702;2024-03-25T01:35:41;5.20;99.90
9951;DHT22;24074;49.254;6.702;2024-03-25T01:38:07;5.20;99.90
9951;DHT22;24074;49.254;6.702;2024-03-25T01:40:33;5.10;99.90
9951;DHT22;24074;49.254;6.702;2024-03-25T01:43:03;4.90;99.90
9951;DHT22;24074;49.254;6.702;2024-03-25T01:45:30;4.90;99.90
9951;DHT22;24074;49.254;6.702;2024-03-25T01:48:02;4.80;99.90
9951;DHT22;24074;49.254;6.702;2024-03-25T01:50:29;4.70;99.90
9951;DHT22;24074;49.254;6.702;2024-03-25T01:52:55;4.50;99.90
9951;DHT22;24074;49.254;6.702;2024-03-25T01:55:22;4.50;99.90
9951;DHT22;24074;49.254;6.702;2024-03-25T01:57:49;4.40;99.90
9951;DHT22;24074;49.254;6.702;2024-03-25T02:00:15;4.40;99.90
9951;DHT22;24074;49.254;6.702;2024-03-25T02:02:44;4.40;99.90
9951;DHT22;24074;49.254;6.702;2024-03-25T02:05:11;4.40;99.90
9951;DHT22;24074;49.254;6.702;2024-03-25T02:07:40;4.40;99.90
9951;DHT22;24074;49.254;6.702;2024-03-25T02:10:07;4.30;99.90
9951;DHT22;24074;49.254;6.702;2024-03-25T02:12:38;4.30;99.90
9951;DHT22;24074;49.254;6.702;2024-03-25T02:15:07;4.30;99.90
9951;DHT22;24074;49.254;6.702;2024-03-25T02:17:36;4.20;99.90
9951;DHT22;24074;49.254;6.702;2024-03-25T02:20:03;4.10;99.90
9951;DHT22;24074;49.254;6.702;2024-03-25T02:22:31;4.00;99.90
9951;DHT22;24074;49.254;6.702;2024-03-25T02:24:57;3.90;99.90
9951;DHT22;24074;49.254;6.702;2024-03-25T02:27:24;3.90;99.90
9951;DHT22;24074;49.254;6.702;2024-03-25T02:29:50;3.90;99.90
9951;DHT22;24074;49.254;6.702;2024-03-25T02:32:16;3.90;99.90
9951;DHT22;24074;49.254;6.702;2024-03-25T02:34:46;3.90;99.90
9951;DHT22;24074;49.254;6.702;2024-03-25T02:37:13;3.90;99.90
9951;DHT22;24074;49.254;6.702;2024-03-25T02:39:38;3.80;99.90
9951;DHT22;24074;49.254;6.702;2024-03-25T02:42:04;3.70;99.90
9951;DHT22;24074;49.254;6.702;2024-03-25T02:44:31;3.60;99.90
9951;DHT22;24074;49.254;6.702;2024-03-25T02:46:57;3.50;99.90
9951;DHT22;24074;49.254;6.702;2024-03-25T02:49:23;3.40;99.90
9951;DHT22;24074;49.254;6.702;2024-03-25T02:51:49;3.30;99.90
9951;DHT22;24074;49.254;6.702;2024-03-25T02:54:14;3.30;99.90
9951;DHT22;24074;49.254;6.702;2024-03-25T02:56:43;3.30;99.90
9951;DHT22;24074;49.254;6.702;2024-03-25T02:59:09;3.30;99.90
9951;DHT22;24074;49.254;6.702;2024-03-25T03:01:35;3.10;99.90
9951;DHT22;24074;49.254;6.702;2024-03-25T03:04:00;3.10;99.90
9951;DHT22;24074;49.254;6.702;2024-03-25T03:06:26;3.10;99.90
9951;DHT22;24074;49.254;6.702;2024-03-25T03:08:52;3.10;99.90
9951;DHT22;24074;49.254;6.702;2024-03-25T03:11:20;3.10;99.90
9951;DHT22;24074;49.254;6.702;2024-03-25T03:13:46;3.00;99.90
9951;DHT22;24074;49.254;6.702;2024-03-25T03:16:11;3.10;99.90
9951;DHT22;24074;49.254;6.702;2024-03-25T03:18:37;3.00;99.90
9951;DHT22;24074;49.254;6.702;2024-03-25T03:21:03;2.90;99.90
9951;DHT22;24074;49.254;6.702;2024-03-25T03:23:28;3.00;99.90
9951;DHT22;24074;49.254;6.702;2024-03-25T03:25:54;2.90;99.90
9951;DHT22;24074;49.254;6.702;2024-03-25T03:28:20;2.90;99.90
9951;DHT22;24074;49.254;6.702;2024-03-25T03:30:46;3.00;99.90
9951;DHT22;24074;49.254;6.702;2024-03-25T03:33:11;2.90;99.90
9951;DHT22;24074;49.254;6.702;2024-03-25T03:35:37;2.70;99.90
9951;DHT22;24074;49.254;6.702;2024-03-25T03:38:03;2.70;99.90
9951;DHT22;24074;49.254;6.702;2024-03-25T03:40:29;2.70;99.90
9951;DHT22;24074;49.254;6.702;2024-03-25T03:42:55;2.50;99.90
9951;DHT22;24074;49.254;6.702;2024-03-25T03:45:24;2.50;99.90
9951;DHT22;24074;49.254;6.702;2024-03-25T03:47:49;2.40;99.90
9951;DHT22;24074;49.254;6.702;2024-03-25T03:50:18;2.40;99.90
9951;DHT22;24074;49.254;6.702;2024-03-25T03:52:44;2.40;99.90
9951;DHT22;24074;49.254;6.702;2024-03-25T03:55:09;2.30;99.90
9951;DHT22;24074;49.254;6.702;2024-03-25T03:57:35;2.30;99.90
9951;DHT22;24074;49.254;6.702;2024-03-25T04:00:01;2.40;99.90
9951;DHT22;24074;49.254;6.702;2024-03-25T04:02:31;2.40;99.90
9951;DHT22;24074;49.254;6.702;2024-03-25T04:04:56;2.40;99.90
9951;DHT22;24074;49.254;6.702;2024-03-25T04:07:22;2.30;99.90
9951;DHT22;24074;49.254;6.702;2024-03-25T04:09:55;2.20;99.90
9951;DHT22;24074;49.254;6.702;2024-03-25T04:12:20;2.30;99.90
9951;DHT22;24074;49.254;6.702;2024-03-25T04:14:49;2.30;99.90
9951;DHT22;24074;49.254;6.702;2024-03-25T04:17:20;2.30;99.90
9951;DHT22;24074;49.254;6.702;2024-03-25T04:19:50;2.40;99.90
9951;DHT22;24074;49.254;6.702;2024-03-25T04:22:16;2.30;99.90
9951;DHT22;24074;49.254;6.702;2024-03-25T04:24:43;2.10;99.90
9951;DHT22;24074;49.254;6.702;2024-03-25T04:27:08;1.90;99.90
9951;DHT22;24074;49.254;6.702;2024-03-25T04:29:34;1.80;99.90
9951;DHT22;24074;49.254;6.702;2024-03-25T04:32:00;1.60;99.90
9951;DHT22;24074;49.254;6.702;2024-03-25T04:34:25;1.50;99.90
9951;DHT22;24074;49.254;6.702;2024-03-25T04:36:51;1.40;99.90
9951;DHT22;24074;49.254;6.702;2024-03-25T04:39:16;1.40;99.90
9951;DHT22;24074;49.254;6.702;2024-03-25T04:41:43;1.40;99.90
9951;DHT22;24074;49.254;6.702;2024-03-25T04:44:15;1.30;99.90
9951;DHT22;24074;49.254;6.702;2024-03-25T04:46:40;1.50;99.90
9951;DHT22;24074;49.254;6.702;2024-03-25T04:49:06;1.40;99.90
9951;DHT22;24074;49.254;6.702;2024-03-25T04:51:31;1.30;99.90
9951;DHT22;24074;49.254;6.702;2024-03-25T04:53:57;1.30;99.90
9951;DHT22;24074;49.254;6.702;2024-03-25T04:56:23;1.20;99.90
9951;DHT22;24074;49.254;6.702;2024-03-25T04:58:51;1.20;99.90
9951;DHT22;24074;49.254;6.702;2024-03-25T05:01:17;1.40;99.90
9951;DHT22;24074;49.254;6.702;2024-03-25T05:03:42;1.50;99.90
9951;DHT22;24074;49.254;6.702;2024-03-25T05:06:08;1.40;99.90
9951;DHT22;24074;49.254;6.702;2024-03-25T05:08:36;1.40;99.90
9951;DHT22;24074;49.254;6.702;2024-03-25T05:11:02;1.30;99.90
9951;DHT22;24074;49.254;6.702;2024-03-25T05:13:27;1.20;99.90
9951;DHT22;24074;49.254;6.702;2024-03-25T05:15:53;1.10;99.90
9951;DHT22;24074;49.254;6.702;2024-03-25T05:18:19;1.10;99.90
9951;DHT22;24074;49.254;6.702;2024-03-25T05:20:44;1.00;99.90
9951;DHT22;24074;49.254;6.702;2024-03-25T05:23:10;1.10;99.90
9951;DHT22;24074;49.254;6.702;2024-03-25T05:25:36;1.20;99.90
9951;DHT22;24074;49.254;6.702;2024-03-25T05:28:05;1.30;99.90
9951;DHT22;24074;49.254;6.702;2024-03-25T05:30:32;1.20;99.90
9951;DHT22;24074;49.254;6.702;2024-03-25T05:32:58;1.00;99.90
9951;DHT22;24074;49.254;6.702;2024-03-25T05:35:23;1.20;99.90
9951;DHT22;24074;49.254;6.702;2024-03-25T05:37:49;1.40;99.90
9951;DHT22;24074;49.254;6.702;2024-03-25T05:40:15;1.50;99.90
9951;DHT22;24074;49.254;6.702;2024-03-25T05:42:40;1.50;99.90
9951;DHT22;24074;49.254;6.702;2024-03-25T05:45:09;1.50;99.90
9951;DHT22;24074;49.254;6.702;2024-03-25T05:47:35;1.60;99.90
9951;DHT22;24074;49.254;6.702;2024-03-25T05:50:01;1.70;99.90
9951;DHT22;24074;49.254;6.702;2024-03-25T05:52:29;1.70;99.90
9951;DHT22;24074;49.254;6.702;2024-03-25T05:54:54;1.70;99.90
9951;DHT22;24074;49.254;6.702;2024-03-25T05:57:20;1.80;99.90
9951;DHT22;24074;49.254;6.702;2024-03-25T05:59:46;1.90;99.90
9951;DHT22;24074;49.254;6.702;2024-03-25T06:02:11;2.10;99.90
9951;DHT22;24074;49.254;6.702;2024-03-25T06:04:37;2.30;99.90
9951;DHT22;24074;49.254;6.702;2024-03-25T06:07:03;2.40;99.90
9951;DHT22;24074;49.254;6.702;2024-03-25T06:09:28;2.70;99.90
9951;DHT22;24074;49.254;6.702;2024-03-25T06:11:54;2.90;99.90
9951;DHT22;24074;49.254;6.702;2024-03-25T06:14:19;3.20;99.90
9951;DHT22;24074;49.254;6.702;2024-03-25T06:16:45;3.20;99.90
9951;DHT22;24074;49.254;6.702;2024-03-25T06:19:11;3.20;99.90
9951;DHT22;24074;49.254;6.702;2024-03-25T06:21:36;3.30;99.90
9951;DHT22;24074;49.254;6.702;2024-03-25T06:24:02;3.50;99.90
9951;DHT22;24074;49.254;6.702;2024-03-25T06:26:28;3.50;99.90
9951;DHT22;24074;49.254;6.702;2024-03-25T06:28:53;3.50;99.90
9951;DHT22;24074;49.254;6.702;2024-03-25T06:31:19;3.60;99.90
9951;DHT22;24074;49.254;6.702;2024-03-25T06:34:03;3.90;99.90
9951;DHT22;24074;49.254;6.702;2024-03-25T06:36:43;4.10;99.90
9951;DHT22;24074;49.254;6.702;2024-03-25T06:39:10;4.30;99.90
9951;DHT22;24074;49.254;6.702;2024-03-25T06:41:36;4.50;99.90
9951;DHT22;24074;49.254;6.702;2024-03-25T06:44:01;4.70;99.90
9951;DHT22;24074;49.254;6.702;2024-03-25T06:46:27;4.90;99.90
9951;DHT22;24074;49.254;6.702;2024-03-25T06:48:56;5.00;99.90
9951;DHT22;24074;49.254;6.702;2024-03-25T06:51:22;5.10;99.90
9951;DHT22;24074;49.254;6.702;2024-03-25T06:53:50;5.20;99.90
9951;DHT22;24074;49.254;6.702;2024-03-25T06:56:19;5.40;99.90
9951;DHT22;24074;49.254;6.702;2024-03-25T06:58:45;5.60;99.90
9951;DHT22;24074;49.254;6.702;2024-03-25T07:01:11;5.70;99.90
9951;DHT22;24074;49.254;6.702;2024-03-25T07:03:39;5.80;99.90
9951;DHT22;24074;49.254;6.702;2024-03-25T07:06:05;6.00;99.90
9951;DHT22;24074;49.254;6.702;2024-03-25T07:08:31;6.20;99.90
9951;DHT22;24074;49.254;6.702;2024-03-25T07:10:56;6.50;99.90
9951;DHT22;24074;49.254;6.702;2024-03-25T07:13:22;7.80;99.90
9951;DHT22;24074;49.254;6.702;2024-03-25T07:15:48;10.20;99.90
9951;DHT22;24074;49.254;6.702;2024-03-25T07:18:13;12.30;99.90
9951;DHT22;24074;49.254;6.702;2024-03-25T07:20:40;14.20;99.90
9951;DHT22;24074;49.254;6.702;2024-03-25T07:23:05;15.50;99.90
9951;DHT22;24074;49.254;6.702;2024-03-25T07:25:31;16.60;99.90
9951;DHT22;24074;49.254;6.702;2024-03-25T07:27:57;15.70;99.90
9951;DHT22;24074;49.254;6.702;2024-03-25T07:30:22;15.30;99.90
9951;DHT22;24074;49.254;6.702;2024-03-25T07:32:51;15.50;99.90
9951;DHT22;24074;49.254;6.702;2024-03-25T07:35:16;16.60;99.90
9951;DHT22;24074;49.254;6.702;2024-03-25T07:37:45;16.70;99.70
9951;DHT22;24074;49.254;6.702;2024-03-25T07:40:11;16.80;98.80
9951;DHT22;24074;49.254;6.702;2024-03-25T07:42:39;16.50;99.50
9951;DHT22;24074;49.254;6.702;2024-03-25T07:45:06;17.60;98.40
9951;DHT22;24074;49.254;6.702;2024-03-25T07:47:32;18.20;96.60
9951;DHT22;24074;49.254;6.702;2024-03-25T07:49:58;18.30;95.40
9951;DHT22;24074;49.254;6.702;2024-03-25T07:52:27;19.40;93.80
9951;DHT22;24074;49.254;6.702;2024-03-25T07:54:53;18.00;92.70
9951;DHT22;24074;49.254;6.702;2024-03-25T07:57:22;18.40;92.40
9951;DHT22;24074;49.254;6.702;2024-03-25T07:59:48;19.30;92.60
9951;DHT22;24074;49.254;6.702;2024-03-25T08:02:15;18.30;91.10
9951;DHT22;24074;49.254;6.702;2024-03-25T08:04:40;18.60;91.50
9951;DHT22;24074;49.254;6.702;2024-03-25T08:07:06;19.00;91.40
9951;DHT22;24074;49.254;6.702;2024-03-25T08:09:32;19.50;90.40
9951;DHT22;24074;49.254;6.702;2024-03-25T08:11:58;20.20;90.10
9951;DHT22;24074;49.254;6.702;2024-03-25T08:14:23;21.40;84.80
9951;DHT22;24074;49.254;6.702;2024-03-25T08:16:49;21.50;80.40
9951;DHT22;24074;49.254;6.702;2024-03-25T08:19:18;22.10;77.80
9951;DHT22;24074;49.254;6.702;2024-03-25T08:21:43;22.90;69.40
9951;DHT22;24074;49.254;6.702;2024-03-25T08:24:09;21.30;70.80
9951;DHT22;24074;49.254;6.702;2024-03-25T08:26:34;22.10;68.00
9951;DHT22;24074;49.254;6.702;2024-03-25T08:29:00;20.50;69.90
9951;DHT22;24074;49.254;6.702;2024-03-25T08:31:28;20.50;72.50
9951;DHT22;24074;49.254;6.702;2024-03-25T08:33:54;21.30;67.70
9951;DHT22;24074;49.254;6.702;2024-03-25T08:36:20;20.60;69.80
9951;DHT22;24074;49.254;6.702;2024-03-25T08:38:45;21.80;70.10
9951;DHT22;24074;49.254;6.702;2024-03-25T08:41:11;22.20;63.40
9951;DHT22;24074;49.254;6.702;2024-03-25T08:43:37;22.10;67.50
9951;DHT22;24074;49.254;6.702;2024-03-25T08:46:02;22.20;61.20
9951;DHT22;24074;49.254;6.702;2024-03-25T08:48:29;22.00;63.90
9951;DHT22;24074;49.254;6.702;2024-03-25T08:50:55;22.70;62.00
9951;DHT22;24074;49.254;6.702;2024-03-25T08:53:20;22.80;60.10
9951;DHT22;24074;49.254;6.702;2024-03-25T08:55:47;23.90;59.50
9951;DHT22;24074;49.254;6.702;2024-03-25T08:58:15;25.40;55.70
9951;DHT22;24074;49.254;6.702;2024-03-25T09:00:44;25.80;53.00
9951;DHT22;24074;49.254;6.702;2024-03-25T09:03:10;26.30;49.00
9951;DHT22;24074;49.254;6.702;2024-03-25T09:05:36;25.00;52.50
9951;DHT22;24074;49.254;6.702;2024-03-25T09:08:07;26.00;50.30
9951;DHT22;24074;49.254;6.702;2024-03-25T09:10:32;25.90;48.20
9951;DHT22;24074;49.254;6.702;2024-03-25T09:13:16;25.90;48.00
9951;DHT22;24074;49.254;6.702;2024-03-25T09:15:42;27.20;44.90
9951;DHT22;24074;49.254;6.702;2024-03-25T09:18:08;27.80;43.20
9951;DHT22;24074;49.254;6.702;2024-03-25T09:20:33;26.40;42.20
9951;DHT22;24074;49.254;6.702;2024-03-25T09:22:59;23.50;42.60
9951;DHT22;24074;49.254;6.702;2024-03-25T09:25:24;21.00;47.00
9951;DHT22;24074;49.254;6.702;2024-03-25T09:27:50;22.70;50.80
9951;DHT22;24074;49.254;6.702;2024-03-25T09:30:17;24.40;46.00
9951;DHT22;24074;49.254;6.702;2024-03-25T09:32:44;23.70;46.20
9951;DHT22;24074;49.254;6.702;2024-03-25T09:35:11;24.00;42.40
9951;DHT22;24074;49.254;6.702;2024-03-25T09:37:36;23.90;43.00
9951;DHT22;24074;49.254;6.702;2024-03-25T09:40:03;22.50;43.10
9951;DHT22;24074;49.254;6.702;2024-03-25T09:42:55;20.60;44.10
9951;DHT22;24074;49.254;6.702;2024-03-25T09:45:29;17.80;48.20
9951;DHT22;24074;49.254;6.702;2024-03-25T09:47:55;17.90;53.80
9951;DHT22;24074;49.254;6.702;2024-03-25T09:50:23;20.50;48.80
9951;DHT22;24074;49.254;6.702;2024-03-25T09:52:50;22.30;46.80
9951;DHT22;24074;49.254;6.702;2024-03-25T09:55:16;22.50;43.50
9951;DHT22;24074;49.254;6.702;2024-03-25T09:57:45;21.60;43.90
9951;DHT22;24074;49.254;6.702;2024-03-25T10:00:12;21.70;43.60
9951;DHT22;24074;49.254;6.702;2024-03-25T10:02:39;19.90;47.10
9951;DHT22;24074;49.254;6.702;2024-03-25T10:05:05;18.50;45.30
9951;DHT22;24074;49.254;6.702;2024-03-25T10:07:32;17.90;49.60
9951;DHT22;24074;49.254;6.702;2024-03-25T10:09:58;16.80;50.00
9951;DHT22;24074;49.254;6.702;2024-03-25T10:12:24;14.80;55.30
9951;DHT22;24074;49.254;6.702;2024-03-25T10:14:50;18.30;54.50
9951;DHT22;24074;49.254;6.702;2024-03-25T10:17:15;20.40;48.20
9951;DHT22;24074;49.254;6.702;2024-03-25T10:19:41;18.20;45.20
9951;DHT22;24074;49.254;6.702;2024-03-25T10:22:08;15.50;47.20
9951;DHT22;24074;49.254;6.702;2024-03-25T10:24:40;14.20;50.50
9951;DHT22;24074;49.254;6.702;2024-03-25T10:27:10;14.70;54.30
9951;DHT22;24074;49.254;6.702;2024-03-25T10:29:37;19.30;50.10
9951;DHT22;24074;49.254;6.702;2024-03-25T10:32:03;20.00;45.20
9951;DHT22;24074;49.254;6.702;2024-03-25T10:34:30;18.70;46.60
9951;DHT22;24074;49.254;6.702;2024-03-25T10:36:58;16.10;46.70
9951;DHT22;24074;49.254;6.702;2024-03-25T10:39:26;16.00;49.10
9951;DHT22;24074;49.254;6.702;2024-03-25T10:41:56;16.60;48.00
9951;DHT22;24074;49.254;6.702;2024-03-25T10:44:23;20.00;44.70
9951;DHT22;24074;49.254;6.702;2024-03-25T10:46:55;22.20;42.70
9951;DHT22;24074;49.254;6.702;2024-03-25T10:49:46;24.10;39.30
9951;DHT22;24074;49.254;6.702;2024-03-25T10:52:17;23.60;38.50
9951;DHT22;24074;49.254;6.702;2024-03-25T10:54:47;23.30;35.90
9951;DHT22;24074;49.254;6.702;2024-03-25T10:57:30;21.70;38.80
9951;DHT22;24074;49.254;6.702;2024-03-25T10:59:57;20.00;39.70
9951;DHT22;24074;49.254;6.702;2024-03-25T11:02:23;20.10;40.30
9951;DHT22;24074;49.254;6.702;2024-03-25T11:04:50;22.10;37.40
9951;DHT22;24074;49.254;6.702;2024-03-25T11:07:17;23.30;36.40
9951;DHT22;24074;49.254;6.702;2024-03-25T11:09:43;24.40;33.60
9951;DHT22;24074;49.254;6.702;2024-03-25T11:12:12;23.90;31.40
9951;DHT22;24074;49.254;6.702;2024-03-25T11:14:39;24.30;30.10
9951;DHT22;24074;49.254;6.702;2024-03-25T11:17:14;24.70;28.20
9951;DHT22;24074;49.254;6.702;2024-03-25T11:19:41;24.60;28.40
9951;DHT22;24074;49.254;6.702;2024-03-25T11:22:10;24.80;28.30
9951;DHT22;24074;49.254;6.702;2024-03-25T11:24:37;22.00;29.40
9951;DHT22;24074;49.254;6.702;2024-03-25T11:27:06;21.20;30.00
9951;DHT22;24074;49.254;6.702;2024-03-25T11:29:32;18.20;30.00
9951;DHT22;24074;49.254;6.702;2024-03-25T11:32:04;17.40;34.40
9951;DHT22;24074;49.254;6.702;2024-03-25T11:34:30;18.90;32.40
9951;DHT22;24074;49.254;6.702;2024-03-25T11:36:56;18.40;31.70
9951;DHT22;24074;49.254;6.702;2024-03-25T11:39:23;17.30;33.20
9951;DHT22;24074;49.254;6.702;2024-03-25T11:41:51;16.00;32.50
9951;DHT22;24074;49.254;6.702;2024-03-25T11:44:17;15.40;35.30
9951;DHT22;24074;49.254;6.702;2024-03-25T11:46:43;15.40;36.10
9951;DHT22;24074;49.254;6.702;2024-03-25T11:49:13;15.60;37.70
9951;DHT22;24074;49.254;6.702;2024-03-25T11:51:40;14.60;35.50
9951;DHT22;24074;49.254;6.702;2024-03-25T11:54:12;13.80;38.30
9951;DHT22;24074;49.254;6.702;2024-03-25T11:56:38;13.90;39.60
9951;DHT22;24074;49.254;6.702;2024-03-25T11:59:04;14.20;39.10
9951;DHT22;24074;49.254;6.702;2024-03-25T12:01:30;13.40;39.20
9951;DHT22;24074;49.254;6.702;2024-03-25T12:03:56;13.30;40.80
9951;DHT22;24074;49.254;6.702;2024-03-25T12:06:22;12.90;42.30
9951;DHT22;24074;49.254;6.702;2024-03-25T12:08:47;12.70;42.00
9951;DHT22;24074;49.254;6.702;2024-03-25T12:11:32;12.80;43.40
9951;DHT22;24074;49.254;6.702;2024-03-25T12:13:59;12.70;43.30
9951;DHT22;24074;49.254;6.702;2024-03-25T12:16:25;12.80;43.40
9951;DHT22;24074;49.254;6.702;2024-03-25T12:18:51;13.10;43.10
9951;DHT22;24074;49.254;6.702;2024-03-25T12:21:19;13.30;44.10
9951;DHT22;24074;49.254;6.702;2024-03-25T12:23:44;13.40;42.80
9951;DHT22;24074;49.254;6.702;2024-03-25T12:26:13;13.50;42.50
9951;DHT22;24074;49.254;6.702;2024-03-25T12:28:39;13.40;41.50
9951;DHT22;24074;49.254;6.702;2024-03-25T12:31:08;13.20;41.00
9951;DHT22;24074;49.254;6.702;2024-03-25T12:33:43;12.80;41.90
9951;DHT22;24074;49.254;6.702;2024-03-25T12:36:11;12.80;41.40
9951;DHT22;24074;49.254;6.702;2024-03-25T12:38:37;12.80;43.10
9951;DHT22;24074;49.254;6.702;2024-03-25T12:41:12;13.10;43.70
9951;DHT22;24074;49.254;6.702;2024-03-25T12:43:44;13.00;41.70
9951;DHT22;24074;49.254;6.702;2024-03-25T12:46:11;13.30;41.70
9951;DHT22;24074;49.254;6.702;2024-03-25T12:48:37;13.20;42.50
9951;DHT22;24074;49.254;6.702;2024-03-25T12:51:03;13.20;43.60
9951;DHT22;24074;49.254;6.702;2024-03-25T12:53:30;13.40;42.90
9951;DHT22;24074;49.254;6.702;2024-03-25T12:55:56;13.60;43.20
9951;DHT22;24074;49.254;6.702;2024-03-25T12:58:21;13.30;43.30
9951;DHT22;24074;49.254;6.702;2024-03-25T13:00:47;12.90;42.10
9951;DHT22;24074;49.254;6.702;2024-03-25T13:03:15;12.70;43.40
9951;DHT22;24074;49.254;6.702;2024-03-25T13:05:43;12.50;43.40
9951;DHT22;24074;49.254;6.702;2024-03-25T13:08:09;12.60;44.40
9951;DHT22;24074;49.254;6.702;2024-03-25T13:10:35;12.70;43.20
9951;DHT22;24074;49.254;6.702;2024-03-25T13:13:01;12.40;43.20
9951;DHT22;24074;49.254;6.702;2024-03-25T13:15:27;12.20;44.40
9951;DHT22;24074;49.254;6.702;2024-03-25T13:17:53;12.60;45.50
9951;DHT22;24074;49.254;6.702;2024-03-25T13:20:19;13.00;42.50
9951;DHT22;24074;49.254;6.702;2024-03-25T13:22:45;13.60;43.90
9951;DHT22;24074;49.254;6.702;2024-03-25T13:25:11;14.10;44.50
9951;DHT22;24074;49.254;6.702;2024-03-25T13:27:37;13.90;42.90
9951;DHT22;24074;49.254;6.702;2024-03-25T13:30:05;13.70;45.20
9951;DHT22;24074;49.254;6.702;2024-03-25T13:32:34;13.70;46.30
9951;DHT22;24074;49.254;6.702;2024-03-25T13:35:00;13.10;45.20
9951;DHT22;24074;49.254;6.702;2024-03-25T13:37:26;13.30;45.10
9951;DHT22;24074;49.254;6.702;2024-03-25T13:39:52;13.20;46.20
9951;DHT22;24074;49.254;6.702;2024-03-25T13:42:18;12.90;46.70
9951;DHT22;24074;49.254;6.702;2024-03-25T13:44:43;12.80;45.60
9951;DHT22;24074;49.254;6.702;2024-03-25T13:47:09;13.00;45.60
9951;DHT22;24074;49.254;6.702;2024-03-25T13:49:35;13.20;45.10
9951;DHT22;24074;49.254;6.702;2024-03-25T13:52:00;13.70;46.90
9951;DHT22;24074;49.254;6.702;2024-03-25T13:54:29;13.70;45.20
9951;DHT22;24074;49.254;6.702;2024-03-25T13:56:56;13.70;45.50
9951;DHT22;24074;49.254;6.702;2024-03-25T13:59:22;13.90;46.00
9951;DHT22;24074;49.254;6.702;2024-03-25T14:01:47;13.80;44.70
9951;DHT22;24074;49.254;6.702;2024-03-25T14:04:13;13.90;45.70
9951;DHT22;24074;49.254;6.702;2024-03-25T14:06:39;13.70;44.60
9951;DHT22;24074;49.254;6.702;2024-03-25T14:09:08;13.70;45.10
9951;DHT22;24074;49.254;6.702;2024-03-25T14:11:34;14.00;45.20
9951;DHT22;24074;49.254;6.702;2024-03-25T14:14:00;13.90;45.30
9951;DHT22;24074;49.254;6.702;2024-03-25T14:16:26;13.70;43.50
9951;DHT22;24074;49.254;6.702;2024-03-25T14:18:52;13.30;44.90
9951;DHT22;24074;49.254;6.702;2024-03-25T14:21:17;13.40;45.10
9951;DHT22;24074;49.254;6.702;2024-03-25T14:23:43;13.60;44.80
9951;DHT22;24074;49.254;6.702;2024-03-25T14:26:12;13.60;44.10
9951;DHT22;24074;49.254;6.702;2024-03-25T14:28:40;13.40;43.60
9951;DHT22;24074;49.254;6.702;2024-03-25T14:31:09;13.50;45.00
9951;DHT22;24074;49.254;6.702;2024-03-25T14:33:37;13.30;44.30
9951;DHT22;24074;49.254;6.702;2024-03-25T14:36:03;13.40;44.80
9951;DHT22;24074;49.254;6.702;2024-03-25T14:38:31;13.60;44.80
9951;DHT22;24074;49.254;6.702;2024-03-25T14:40:57;13.90;44.10
9951;DHT22;24074;49.254;6.702;2024-03-25T14:43:23;14.00;43.50
9951;DHT22;24074;49.254;6.702;2024-03-25T14:45:49;13.90;42.30
9951;DHT22;24074;49.254;6.702;2024-03-25T14:48:14;13.80;43.90
9951;DHT22;24074;49.254;6.702;2024-03-25T14:50:40;13.60;42.10
9951;DHT22;24074;49.254;6.702;2024-03-25T14:53:05;13.40;42.30
9951;DHT22;24074;49.254;6.702;2024-03-25T14:55:32;13.60;43.60
9951;DHT22;24074;49.254;6.702;2024-03-25T14:57:57;13.70;44.20
9951;DHT22;24074;49.254;6.702;2024-03-25T15:00:23;13.80;43.80
9951;DHT22;24074;49.254;6.702;2024-03-25T15:02:50;13.60;44.50
9951;DHT22;24074;49.254;6.702;2024-03-25T15:05:16;13.50;44.80
9951;DHT22;24074;49.254;6.702;2024-03-25T15:07:42;13.50;44.20
9951;DHT22;24074;49.254;6.702;2024-03-25T15:10:07;13.70;45.50
9951;DHT22;24074;49.254;6.702;2024-03-25T15:12:37;13.70;44.20
9951;DHT22;24074;49.254;6.702;2024-03-25T15:15:03;13.50;43.80
9951;DHT22;24074;49.254;6.702;2024-03-25T15:17:32;13.40;44.20
9951;DHT22;24074;49.254;6.702;2024-03-25T15:19:57;13.40;44.30
9951;DHT22;24074;49.254;6.702;2024-03-25T15:22:23;13.50;44.90
9951;DHT22;24074;49.254;6.702;2024-03-25T15:24:49;13.50;45.00
9951;DHT22;24074;49.254;6.702;2024-03-25T15:27:14;13.40;44.70
9951;DHT22;24074;49.254;6.702;2024-03-25T15:29:40;13.30;44.80
9951;DHT22;24074;49.254;6.702;2024-03-25T15:32:05;13.40;45.30
9951;DHT22;24074;49.254;6.702;2024-03-25T15:34:31;13.40;45.60
9951;DHT22;24074;49.254;6.702;2024-03-25T15:36:57;13.50;46.00
9951;DHT22;24074;49.254;6.702;2024-03-25T15:39:22;13.50;45.60
9951;DHT22;24074;49.254;6.702;2024-03-25T15:41:48;13.20;44.30
9951;DHT22;24074;49.254;6.702;2024-03-25T15:44:15;13.00;44.60
9951;DHT22;24074;49.254;6.702;2024-03-25T15:46:41;13.00;43.20
9951;DHT22;24074;49.254;6.702;2024-03-25T15:49:07;13.00;44.00